This is the latest recevied weather packets stored in our database for station/object OE-11099. If no packets are shown the sender has not sent any weather packets the latest 10 day(s).
| Time | Temp. | Humidity | Pressure | Rain* | Wind** | Luminosity | Snow |
|---|---|---|---|---|---|---|---|
| 1788020705 | 22.78° C | 54% | 1014.1 hPa | 0 mm | - | 160 W/m² | - |
| 1788019879 | 22.78° C | 55% | 1014.3 hPa | 0 mm | - | 113 W/m² | - |
| 1788019506 | 23.33° C | 51% | 1014 hPa | 0 mm | - | 153 W/m² | - |
| 1788018905 | 23.89° C | 49% | 1013.9 hPa | 0 mm | - | 299 W/m² | - |
| 1788018079 | 23.89° C | 48% | 1013.9 hPa | 0 mm | - | 313 W/m² | - |
| 1788017706 | 24.44° C | 48% | 1013.8 hPa | 0 mm | - | 379 W/m² | - |
| 1788017106 | 24.44° C | 50% | 1013.7 hPa | 0 mm | - | 399 W/m² | - |
| 1788016279 | 24.44° C | 50% | 1013.6 hPa | 0 mm | - | 406 W/m² | - |
| 1788015906 | 24.44° C | 50% | 1013.6 hPa | 0 mm | - | 412 W/m² | - |
| 1788015306 | 23.89° C | 50% | 1013.6 hPa | 0 mm | - | 253 W/m² | - |
| 1788014479 | 24.44° C | 50% | 1013.6 hPa | 0 mm | - | 419 W/m² | - |
| 1788014106 | 24.44° C | 51% | 1013.5 hPa | 0 mm | - | 419 W/m² | - |
| 1788013505 | 23.89° C | 51% | 1013.6 hPa | 0 mm | - | 259 W/m² | - |
| 1788012679 | 25° C | 51% | 1013.5 hPa | 0 mm | - | 412 W/m² | - |
| 1788012306 | 25° C | 50% | 1013.4 hPa | 0 mm | - | 485 W/m² | - |
| 1788011706 | 25° C | 50% | 1013.5 hPa | 0 mm | - | 426 W/m² | - |
| 1788010879 | 24.44° C | 47% | 1013.5 hPa | 0 mm | - | 372 W/m² | - |
| 1788010506 | 25° C | 45% | 1013.4 hPa | 0 mm | - | 532 W/m² | - |
| 1788009905 | 25.56° C | 44% | 1013.4 hPa | 0 mm | - | 598 W/m² | - |
| 1788009079 | 25.56° C | 43% | 1013.4 hPa | 0 mm | - | 652 W/m² | - |
| 1788008706 | 25.56° C | 46% | 1013.6 hPa | 0 mm | - | 711 W/m² | - |
| 1788008106 | 25° C | 48% | 1013.7 hPa | 0 mm | - | 711 W/m² | - |
| 1788007279 | 25° C | 47% | 1013.8 hPa | 0 mm | - | 725 W/m² | - |
| 1788006906 | 25.56° C | 48% | 1013.9 hPa | 0 mm | - | 745 W/m² | - |
| 1788006306 | 24.44° C | 43% | 1014.2 hPa | 0 mm | - | 758 W/m² | - |
* Rain latest hour (hover to see other rain measurements)
** Current wind speed in m/s (hover to see current wind gust speed)